Terminal Aerodrome Forecast
Issued by NWS Northern Indiana

Home | Current Version | Previous Version | Text Only | Print | Product List | Glossary On
Versions: 1 2 3 4 5 6 7 8 9 10 11 12
000
FTUS43 KIWX 251120
TAFFWA
TAF
KFWA 251120Z 2512/2612 24005KT P6SM VCSH SCT035 BKN120
     FM251400 26007KT P6SM SCT035
     FM251900 29007KT P6SM SCT035
     FM252100 30009KT P6SM SCT250
     FM260800 VRB03KT P6SM SKC=

USA.gov is the U.S. government's official web portal to all federal, state and local government web resources and services.